Time;durP1;ratioP1;P1;durP2;ratioP2;P2;SDS_P1;SDS_P2;PMS_P1;PMS_P2;Temp;Humidity;BMP_temperature;BMP_pressure;BME280_temperature;BME280_humidity;BME280_pressure;Samples;Min_cycle;Max_cycle;Signal;HPM_P1;HPM_P2
2021/08/21 00:01:04;;;;;;;3.27;2.77;;;19.10;99.90;;;;;;4999385;28;20584;-79
2021/08/21 00:03:30;;;;;;;4.60;3.30;;;19.10;99.90;;;;;;5033107;28;20695;-79
2021/08/21 00:05:55;;;;;;;4.10;3.30;;;19.10;99.90;;;;;;5032951;28;21024;-80
2021/08/21 00:08:21;;;;;;;4.00;3.60;;;19.10;99.90;;;;;;5032967;28;20193;-79
2021/08/21 00:10:47;;;;;;;3.17;2.70;;;19.10;99.90;;;;;;5033271;28;20215;-79
2021/08/21 00:13:13;;;;;;;4.17;2.70;;;19.00;99.90;;;;;;5033122;28;20562;-79
2021/08/21 00:15:39;;;;;;;7.03;4.80;;;19.00;99.90;;;;;;5032728;28;20602;-80
2021/08/21 00:18:04;;;;;;;3.83;3.30;;;19.00;99.90;;;;;;5037206;28;20321;-79
2021/08/21 00:20:30;;;;;;;3.83;2.87;;;19.00;99.90;;;;;;5032924;28;20587;-80
2021/08/21 00:22:56;;;;;;;3.83;2.63;;;19.00;99.90;;;;;;5032787;28;20267;-80
2021/08/21 00:25:22;;;;;;;3.50;2.77;;;18.90;99.90;;;;;;5032489;28;20169;-80
2021/08/21 00:27:47;;;;;;;3.87;2.73;;;18.90;99.90;;;;;;5031531;28;20225;-80
2021/08/21 00:30:14;;;;;;;5.73;4.07;;;18.90;99.90;;;;;;5032786;28;20166;-80
2021/08/21 00:32:40;;;;;;;7.07;3.30;;;18.80;99.90;;;;;;5032657;28;20224;-80
2021/08/21 00:35:07;;;;;;;3.57;2.73;;;18.80;99.90;;;;;;5032758;28;20604;-80
2021/08/21 00:37:33;;;;;;;3.37;2.37;;;18.80;99.90;;;;;;5014823;28;20581;-80
2021/08/21 00:39:58;;;;;;;3.77;2.70;;;18.80;99.90;;;;;;5033218;28;20936;-80
2021/08/21 00:42:24;;;;;;;4.63;2.67;;;18.80;99.90;;;;;;5032543;28;20603;-80
2021/08/21 00:44:50;;;;;;;4.70;3.10;;;18.80;99.90;;;;;;5032325;28;20173;-80
2021/08/21 00:47:18;;;;;;;3.60;2.50;;;18.70;99.90;;;;;;5032364;28;20166;-80
2021/08/21 00:49:52;;;;;;;6.00;2.90;;;18.70;99.90;;;;;;5031512;28;20205;-80
2021/08/21 00:52:25;;;;;;;2.80;2.60;;;18.70;99.90;;;;;;5014708;28;20615;-80
2021/08/21 00:54:52;;;;;;;3.80;2.97;;;18.70;99.90;;;;;;5017645;28;20568;-79
2021/08/21 00:57:19;;;;;;;5.93;3.50;;;18.60;99.90;;;;;;5032327;28;20634;-80
2021/08/21 00:59:49;;;;;;;2.60;2.40;;;18.60;99.90;;;;;;5031008;28;20619;-79
2021/08/21 01:02:16;;;;;;;2.17;1.97;;;18.60;99.90;;;;;;5014555;28;20985;-80
2021/08/21 01:04:44;;;;;;;3.10;2.47;;;18.60;99.90;;;;;;5013719;28;20573;-79
2021/08/21 01:07:12;;;;;;;2.60;2.40;;;18.50;99.90;;;;;;5032020;28;20571;-79
2021/08/21 01:09:42;;;;;;;3.30;2.87;;;18.60;99.90;;;;;;5014332;28;21066;-80
2021/08/21 01:12:14;;;;;;;3.17;2.40;;;18.50;99.90;;;;;;5014795;28;20909;-80
2021/08/21 01:14:42;;;;;;;2.90;2.20;;;18.50;99.90;;;;;;4997924;28;20596;-80
2021/08/21 01:17:08;;;;;;;4.03;2.73;;;18.50;99.90;;;;;;5014477;28;21120;-80
2021/08/21 01:19:44;;;;;;;3.60;2.70;;;18.50;99.90;;;;;;5014184;28;20596;-80
2021/08/21 01:22:15;;;;;;;3.53;2.53;;;18.50;99.90;;;;;;5014454;28;20668;-80
2021/08/21 01:24:46;;;;;;;2.80;2.30;;;18.50;99.90;;;;;;5014082;28;20960;-80
2021/08/21 01:27:16;;;;;;;3.03;2.60;;;18.40;99.90;;;;;;5030719;28;20580;-80
2021/08/21 01:30:14;;;;;;;2.80;2.50;;;18.40;99.90;;;;;;5015739;28;21147;-80
2021/08/21 01:32:47;;;;;;;2.80;2.20;;;18.40;99.90;;;;;;5034837;28;20599;-80
2021/08/21 01:35:17;;;;;;;4.87;2.60;;;18.40;99.90;;;;;;5013788;28;20589;-81
2021/08/21 01:37:44;;;;;;;3.17;2.17;;;18.40;99.90;;;;;;5013960;28;20634;-80
2021/08/21 01:40:29;;;;;;;2.60;1.83;;;18.30;99.90;;;;;;5031742;28;20556;-80
2021/08/21 01:42:57;;;;;;;3.00;2.60;;;18.30;99.90;;;;;;5030440;28;20616;-80
2021/08/21 01:45:22;;;;;;;5.70;3.10;;;18.30;99.90;;;;;;4997474;28;20589;-80
2021/08/21 01:47:48;;;;;;;2.80;2.00;;;18.30;99.90;;;;;;5013599;28;21281;-80
2021/08/21 01:50:18;;;;;;;2.37;1.93;;;18.30;99.90;;;;;;5014005;28;20178;-80
2021/08/21 01:52:46;;;;;;;2.80;2.50;;;18.30;99.90;;;;;;5013816;28;20627;-80
2021/08/21 01:55:29;;;;;;;2.70;2.40;;;18.30;99.90;;;;;;5013801;28;20687;-80
2021/08/21 01:57:56;;;;;;;4.17;2.83;;;18.30;99.90;;;;;;5014249;28;20577;-80
2021/08/21 02:00:42;;;;;;;3.63;2.13;;;18.30;99.90;;;;;;4990863;28;20604;-80
2021/08/21 02:03:07;;;;;;;2.80;2.47;;;18.30;99.90;;;;;;5030065;28;20634;-80
2021/08/21 02:05:37;;;;;;;2.70;2.47;;;18.30;99.90;;;;;;5030192;28;20579;-80
2021/08/21 02:08:04;;;;;;;3.60;2.70;;;18.30;99.90;;;;;;5018129;28;20628;-80
2021/08/21 02:10:31;;;;;;;2.87;2.60;;;18.20;99.90;;;;;;4997397;28;20624;-80
2021/08/21 02:12:57;;;;;;;2.47;2.27;;;18.20;99.90;;;;;;5030016;28;20678;-80
2021/08/21 02:15:26;;;;;;;2.93;2.63;;;18.20;99.90;;;;;;5014410;28;20604;-80
2021/08/21 02:17:56;;;;;;;2.93;2.30;;;18.20;99.90;;;;;;5034207;28;20572;-80
2021/08/21 02:20:57;;;;;;;3.10;2.67;;;18.20;99.90;;;;;;5014679;28;20631;-80
2021/08/21 02:23:26;;;;;;;2.90;1.93;;;18.20;99.90;;;;;;5017301;28;21181;-80
2021/08/21 02:25:56;;;;;;;2.50;2.30;;;18.10;99.90;;;;;;5017215;28;20812;-80
2021/08/21 02:28:26;;;;;;;3.30;2.23;;;18.10;99.90;;;;;;5033827;28;20647;-79
2021/08/21 02:30:52;;;;;;;3.23;2.90;;;18.10;99.90;;;;;;5017293;28;21224;-79
2021/08/21 02:33:18;;;;;;;3.87;2.10;;;18.10;99.90;;;;;;5034969;28;20262;-79
2021/08/21 02:35:49;;;;;;;5.30;2.30;;;18.10;99.90;;;;;;5033275;28;20584;-80
2021/08/21 02:38:15;;;;;;;3.43;2.60;;;18.10;99.90;;;;;;5016945;28;20623;-80
2021/08/21 02:40:41;;;;;;;2.93;2.27;;;18.10;99.90;;;;;;5034937;28;20611;-80
2021/08/21 02:43:09;;;;;;;3.17;2.53;;;18.10;99.90;;;;;;5034927;28;20608;-80
2021/08/21 02:45:35;;;;;;;2.70;2.50;;;18.10;99.90;;;;;;5037739;28;20618;-79
2021/08/21 02:48:01;;;;;;;3.93;3.10;;;18.00;99.90;;;;;;5033484;28;21178;-79
2021/08/21 02:50:29;;;;;;;4.33;2.80;;;18.10;99.90;;;;;;5033570;28;20572;-79
2021/08/21 02:52:55;;;;;;;3.37;2.70;;;18.00;99.90;;;;;;5017064;28;21225;-79
2021/08/21 02:55:23;;;;;;;3.00;2.70;;;18.00;99.90;;;;;;5016711;28;20526;-79
2021/08/21 02:57:50;;;;;;;7.07;3.33;;;18.00;99.90;;;;;;5017449;28;20595;-80
2021/08/21 03:00:16;;;;;;;3.07;2.63;;;17.90;99.90;;;;;;5033724;28;21045;-80
2021/08/21 03:02:48;;;;;;;4.30;2.67;;;17.90;99.90;;;;;;5017338;28;20632;-79
2021/08/21 03:05:14;;;;;;;2.30;1.90;;;17.90;99.90;;;;;;5033030;28;20572;-79
2021/08/21 03:07:41;;;;;;;2.33;2.13;;;17.90;99.90;;;;;;5000474;28;20567;-79
2021/08/21 03:10:10;;;;;;;3.20;2.50;;;17.90;99.90;;;;;;5033007;28;20579;-79
2021/08/21 03:12:51;;;;;;;3.50;2.97;;;17.90;99.90;;;;;;5017276;28;20595;-79
2021/08/21 03:15:18;;;;;;;4.80;2.50;;;17.90;99.90;;;;;;5016869;28;20973;-79
2021/08/21 03:17:44;;;;;;;2.67;2.27;;;17.90;99.90;;;;;;5000596;28;20711;-79
2021/08/21 03:20:11;;;;;;;5.63;2.40;;;17.90;99.90;;;;;;5016767;28;21147;-79
2021/08/21 03:22:39;;;;;;;4.63;2.50;;;17.90;99.90;;;;;;5021624;28;20596;-78
2021/08/21 03:25:07;;;;;;;3.33;2.30;;;17.90;99.90;;;;;;5015854;28;20934;-78
2021/08/21 03:27:33;;;;;;;2.77;2.57;;;17.90;99.90;;;;;;5015734;28;20571;-78
2021/08/21 03:29:59;;;;;;;3.23;2.47;;;17.80;99.90;;;;;;5016150;28;20706;-78
2021/08/21 03:32:25;;;;;;;2.20;2.00;;;17.80;99.90;;;;;;5032533;28;20166;-78
2021/08/21 03:34:55;;;;;;;2.70;2.30;;;17.90;99.90;;;;;;5015731;28;20580;-78
2021/08/21 03:37:21;;;;;;;4.23;2.13;;;17.90;99.90;;;;;;5034320;28;20811;-78
2021/08/21 03:39:47;;;;;;;2.40;2.03;;;17.90;99.90;;;;;;5052609;28;20566;-79
2021/08/21 03:42:17;;;;;;;2.87;2.67;;;17.90;99.90;;;;;;5035805;28;20562;-79
2021/08/21 03:44:47;;;;;;;2.27;2.03;;;17.90;99.90;;;;;;5052256;28;20568;-80
2021/08/21 03:47:13;;;;;;;3.20;2.70;;;17.90;99.90;;;;;;5035322;28;20660;-80
2021/08/21 03:49:39;;;;;;;3.10;2.60;;;17.80;99.90;;;;;;5035869;28;20623;-80
2021/08/21 03:52:06;;;;;;;3.60;2.17;;;17.80;99.90;;;;;;5035539;28;20682;-80
2021/08/21 03:54:34;;;;;;;3.17;2.87;;;17.80;99.90;;;;;;5035288;28;21205;-81
2021/08/21 03:57:00;;;;;;;2.60;2.40;;;17.80;99.90;;;;;;5035853;28;20559;-80
2021/08/21 03:59:27;;;;;;;3.00;2.23;;;17.80;99.90;;;;;;5041310;28;20586;-80
2021/08/21 04:01:55;;;;;;;2.47;2.27;;;17.80;99.90;;;;;;5035523;28;20570;-80
2021/08/21 04:04:31;;;;;;;5.30;2.20;;;17.80;99.90;;;;;;5035052;28;20598;-80
2021/08/21 04:07:00;;;;;;;3.60;3.17;;;17.80;99.90;;;;;;5035292;28;20618;-79
2021/08/21 04:09:32;;;;;;;2.40;2.20;;;17.80;99.90;;;;;;5035191;28;20671;-79
2021/08/21 04:12:00;;;;;;;5.33;2.67;;;17.80;99.90;;;;;;5035081;28;21119;-80
2021/08/21 04:14:30;;;;;;;2.63;2.37;;;17.80;99.90;;;;;;5035406;28;21046;-79
2021/08/21 04:16:56;;;;;;;3.10;2.53;;;17.80;99.90;;;;;;5053070;28;20567;-79
2021/08/21 04:19:22;;;;;;;3.60;2.13;;;17.80;99.90;;;;;;5018619;28;20197;-79
2021/08/21 04:21:51;;;;;;;2.53;2.20;;;17.80;99.90;;;;;;5034662;28;20571;-79
2021/08/21 04:24:22;;;;;;;2.87;2.30;;;17.80;99.90;;;;;;5034821;28;20611;-79
2021/08/21 04:26:54;;;;;;;3.40;1.80;;;17.80;99.90;;;;;;5034552;28;20579;-79
2021/08/21 04:29:21;;;;;;;2.90;2.60;;;17.80;99.90;;;;;;5034944;28;20607;-79
2021/08/21 04:31:47;;;;;;;2.93;2.23;;;17.90;99.90;;;;;;5034717;28;20563;-79
2021/08/21 04:34:14;;;;;;;2.00;1.90;;;17.90;99.90;;;;;;5034843;28;21361;-79
2021/08/21 04:36:39;;;;;;;2.77;2.00;;;17.90;99.90;;;;;;5038716;28;20644;-78
2021/08/21 04:39:08;;;;;;;2.17;1.97;;;18.00;99.90;;;;;;5017243;28;20539;-78
2021/08/21 04:41:34;;;;;;;2.60;2.37;;;18.00;99.90;;;;;;5034924;28;20602;-78
2021/08/21 04:44:00;;;;;;;2.73;2.27;;;18.00;99.90;;;;;;5052558;28;20603;-78
2021/08/21 04:46:26;;;;;;;2.70;2.50;;;18.00;99.90;;;;;;5034430;28;20173;-78
2021/08/21 04:48:52;;;;;;;4.13;2.50;;;18.00;99.90;;;;;;5052126;28;20718;-78
2021/08/21 04:51:17;;;;;;;2.93;2.60;;;18.10;99.90;;;;;;5018245;28;20169;-78
2021/08/21 04:53:43;;;;;;;3.60;2.23;;;18.10;99.90;;;;;;5028528;28;20194;-79
2021/08/21 04:56:09;;;;;;;2.17;1.80;;;18.10;99.90;;;;;;5017486;28;20174;-78
2021/08/21 04:58:55;;;;;;;2.07;1.87;;;18.10;99.90;;;;;;5037159;28;20182;-78
2021/08/21 05:01:21;;;;;;;2.40;2.20;;;18.10;99.90;;;;;;5022792;28;20577;-79
2021/08/21 05:03:47;;;;;;;3.13;2.70;;;18.20;99.90;;;;;;4997968;28;20662;-78
2021/08/21 05:06:13;;;;;;;2.60;2.40;;;18.20;99.90;;;;;;5014135;28;20580;-79
2021/08/21 05:08:39;;;;;;;2.47;2.07;;;18.30;99.90;;;;;;5014349;28;21027;-78
2021/08/21 05:11:05;;;;;;;2.40;2.20;;;18.30;99.90;;;;;;5015108;28;20715;-78
2021/08/21 05:13:31;;;;;;;2.67;2.47;;;18.30;99.90;;;;;;5018618;28;20197;-78
2021/08/21 05:16:00;;;;;;;2.80;1.93;;;18.30;99.90;;;;;;5013791;28;20695;-78
2021/08/21 05:18:48;;;;;;;2.40;2.20;;;18.30;99.90;;;;;;5030979;28;20683;-78
2021/08/21 05:21:28;;;;;;;2.97;2.00;;;18.40;99.90;;;;;;5014208;28;20583;-78
2021/08/21 05:23:56;;;;;;;2.97;1.97;;;18.50;99.90;;;;;;5013630;28;21171;-78
2021/08/21 05:26:23;;;;;;;3.10;2.50;;;18.50;99.90;;;;;;5014115;28;20579;-79
2021/08/21 05:28:49;;;;;;;3.13;2.90;;;18.50;99.90;;;;;;5031734;28;20620;-78
2021/08/21 05:31:14;;;;;;;3.00;2.03;;;18.60;99.90;;;;;;5013745;28;20576;-79
2021/08/21 05:33:40;;;;;;;3.27;2.43;;;18.70;99.90;;;;;;5030522;28;20600;-79
2021/08/21 05:36:06;;;;;;;2.90;2.10;;;18.70;99.90;;;;;;5031413;28;20177;-79
2021/08/21 05:38:32;;;;;;;3.07;2.67;;;18.80;99.90;;;;;;5032092;28;20256;-79
2021/08/21 05:40:57;;;;;;;2.73;2.30;;;18.90;99.90;;;;;;5031546;28;20688;-79
2021/08/21 05:43:23;;;;;;;3.03;2.83;;;18.90;99.90;;;;;;5025409;28;20197;-79
2021/08/21 05:45:49;;;;;;;2.67;2.47;;;18.90;99.90;;;;;;5020953;28;20552;-79
2021/08/21 05:48:14;;;;;;;3.80;2.40;;;18.90;99.90;;;;;;5030071;28;20197;-79
2021/08/21 05:50:40;;;;;;;3.53;3.20;;;19.00;99.90;;;;;;5014015;28;20603;-80
2021/08/21 05:53:06;;;;;;;4.70;2.47;;;19.10;99.90;;;;;;5019998;28;20182;-79
2021/08/21 05:55:33;;;;;;;2.83;2.50;;;19.20;99.90;;;;;;5005832;28;20965;-80
2021/08/21 05:58:03;;;;;;;3.90;2.70;;;19.30;99.90;;;;;;5033337;28;20572;-80
2021/08/21 06:00:30;;;;;;;2.30;2.10;;;19.30;99.90;;;;;;5051326;28;20650;-80
2021/08/21 06:02:56;;;;;;;3.47;2.27;;;19.40;99.90;;;;;;5047269;28;20209;-80
2021/08/21 06:05:22;;;;;;;2.53;2.33;;;19.40;99.90;;;;;;5030923;28;20619;-81
2021/08/21 06:07:51;;;;;;;2.40;2.13;;;19.40;99.90;;;;;;5013246;28;20603;-81
2021/08/21 06:10:22;;;;;;;2.90;2.60;;;19.50;99.90;;;;;;5013714;28;20595;-80
2021/08/21 06:12:48;;;;;;;2.90;2.60;;;19.60;99.90;;;;;;5013418;28;20710;-80
2021/08/21 06:15:14;;;;;;;2.83;2.00;;;19.60;99.90;;;;;;5030903;28;20676;-80
2021/08/21 06:17:40;;;;;;;2.37;2.17;;;19.60;99.90;;;;;;5031259;28;20174;-79
2021/08/21 06:20:06;;;;;;;3.50;2.20;;;19.60;99.90;;;;;;5013307;28;21210;-80
2021/08/21 06:22:32;;;;;;;2.10;1.90;;;19.60;99.90;;;;;;5031096;28;20225;-80
2021/08/21 06:24:58;;;;;;;2.67;2.27;;;19.60;99.90;;;;;;5033538;28;20655;-80
2021/08/21 06:27:23;;;;;;;1.93;1.73;;;19.60;99.90;;;;;;5032839;28;20584;-80
2021/08/21 06:29:49;;;;;;;2.33;2.13;;;19.70;99.90;;;;;;5030826;28;21219;-79
2021/08/21 06:32:15;;;;;;;1.70;1.43;;;19.70;99.90;;;;;;5031345;28;20169;-79
2021/08/21 06:34:41;;;;;;;2.10;1.90;;;19.80;99.90;;;;;;5031027;28;20201;-80
2021/08/21 06:37:07;;;;;;;1.93;1.73;;;19.90;99.90;;;;;;5029483;28;20595;-79
2021/08/21 06:39:33;;;;;;;1.77;1.40;;;20.00;99.90;;;;;;5034121;28;20711;-80
2021/08/21 06:42:00;;;;;;;2.27;2.07;;;20.30;99.90;;;;;;5035674;28;20180;-80
2021/08/21 06:44:27;;;;;;;2.40;1.80;;;20.60;99.90;;;;;;5012655;28;20599;-79
2021/08/21 06:46:53;;;;;;;2.10;1.90;;;20.90;99.90;;;;;;5030889;28;20561;-80
2021/08/21 06:49:18;;;;;;;2.23;1.50;;;21.50;99.90;;;;;;5031100;28;20647;-80
2021/08/21 06:51:44;;;;;;;1.70;1.40;;;22.00;99.90;;;;;;5030883;28;20595;-80
2021/08/21 06:54:10;;;;;;;1.50;1.30;;;22.50;99.90;;;;;;5013206;28;20189;-80
2021/08/21 06:56:35;;;;;;;2.50;1.93;;;23.10;99.90;;;;;;5012996;28;20177;-80
2021/08/21 06:59:01;;;;;;;1.73;1.23;;;23.60;99.90;;;;;;5030938;28;20684;-80
2021/08/21 07:01:29;;;;;;;2.37;1.40;;;24.20;99.90;;;;;;5032968;28;20265;-80
2021/08/21 07:03:54;;;;;;;3.07;1.70;;;24.80;99.90;;;;;;5037590;28;20193;-80
2021/08/21 07:06:20;;;;;;;2.73;1.53;;;25.50;99.90;;;;;;5034051;28;20571;-80
2021/08/21 07:08:46;;;;;;;2.13;1.10;;;26.00;99.90;;;;;;5034256;28;20651;-80
2021/08/21 07:11:11;;;;;;;2.10;1.30;;;26.70;99.90;;;;;;5034307;28;20166;-80
2021/08/21 07:13:37;;;;;;;3.50;1.33;;;27.60;99.90;;;;;;5034058;28;20200;-80
2021/08/21 07:16:03;;;;;;;1.77;1.30;;;28.10;99.90;;;;;;5033758;28;20264;-80
2021/08/21 07:18:29;;;;;;;3.73;1.00;;;28.50;99.90;;;;;;5016180;28;20257;-80
2021/08/21 07:20:55;;;;;;;1.50;1.10;;;28.80;99.90;;;;;;5034121;28;20572;-80
2021/08/21 07:23:20;;;;;;;3.00;1.37;;;29.30;99.90;;;;;;5033788;28;20205;-81
2021/08/21 07:25:46;;;;;;;1.50;1.20;;;29.80;99.90;;;;;;5033727;28;20162;-81
2021/08/21 07:28:12;;;;;;;1.50;0.80;;;30.30;99.90;;;;;;5015993;28;20672;-79
2021/08/21 07:30:38;;;;;;;2.57;1.10;;;30.80;99.90;;;;;;5033954;28;20172;-79
2021/08/21 07:33:03;;;;;;;1.80;0.90;;;31.20;99.90;;;;;;5033556;28;20188;-79
2021/08/21 07:35:29;;;;;;;1.30;0.90;;;31.60;99.90;;;;;;5033863;28;20164;-81
2021/08/21 07:37:55;;;;;;;2.27;1.10;;;32.00;99.90;;;;;;5034013;28;20184;-81
2021/08/21 07:40:21;;;;;;;1.70;1.23;;;32.20;99.90;;;;;;5036480;28;20386;-81
2021/08/21 07:42:47;;;;;;;1.40;1.00;;;32.10;99.90;;;;;;5033742;28;20599;-81
2021/08/21 07:45:13;;;;;;;1.60;1.20;;;32.00;99.90;;;;;;5031570;28;20255;-81
2021/08/21 07:47:39;;;;;;;1.70;0.80;;;32.20;99.90;;;;;;5014886;28;20242;-80
2021/08/21 07:50:06;;;;;;;1.50;0.90;;;32.50;99.90;;;;;;5032774;28;20612;-81
2021/08/21 07:52:32;;;;;;;2.17;1.30;;;32.60;99.90;;;;;;5016124;28;20166;-80
2021/08/21 07:54:57;;;;;;;1.60;1.10;;;32.90;99.90;;;;;;5033772;28;20567;-80
2021/08/21 07:57:24;;;;;;;1.50;1.00;;;33.20;99.90;;;;;;5033351;28;20261;-80
2021/08/21 07:59:49;;;;;;;1.97;1.00;;;33.60;99.90;;;;;;5033298;28;20188;-80
2021/08/21 08:02:15;;;;;;;3.87;0.90;;;34.00;99.60;;;;;;5033372;28;20573;-81
2021/08/21 08:04:41;;;;;;;2.50;0.90;;;34.40;98.90;;;;;;5033256;28;20217;-81
2021/08/21 08:07:06;;;;;;;1.50;0.90;;;34.50;97.10;;;;;;5033678;28;20206;-80
2021/08/21 08:09:32;;;;;;;1.20;0.70;;;34.50;95.40;;;;;;5015876;28;20272;-79
2021/08/21 08:11:58;;;;;;;1.70;0.83;;;34.40;95.10;;;;;;5033530;28;20173;-78
2021/08/21 08:14:23;;;;;;;1.60;1.00;;;34.50;94.70;;;;;;5032754;28;20276;-78
2021/08/21 08:16:49;;;;;;;2.03;1.10;;;34.40;93.20;;;;;;5037550;28;20255;-78
2021/08/21 08:19:15;;;;;;;1.40;0.80;;;34.30;92.60;;;;;;5033008;28;20208;-80
2021/08/21 08:21:40;;;;;;;1.90;0.87;;;34.20;92.50;;;;;;5033103;28;20225;-80
2021/08/21 08:24:06;;;;;;;1.20;0.70;;;34.30;92.40;;;;;;5031264;28;20237;-80
2021/08/21 08:26:32;;;;;;;1.87;0.97;;;34.50;92.60;;;;;;5032826;28;20517;-80
2021/08/21 08:28:57;;;;;;;1.37;0.80;;;34.90;91.70;;;;;;5032793;28;20570;-80
2021/08/21 08:31:23;;;;;;;2.00;1.10;;;34.80;90.50;;;;;;5032826;28;20172;-80
2021/08/21 08:33:49;;;;;;;1.40;0.90;;;34.80;90.40;;;;;;5032860;28;20212;-80
2021/08/21 08:36:14;;;;;;;1.97;0.90;;;34.40;87.60;;;;;;5032332;28;20184;-80
2021/08/21 08:38:40;;;;;;;2.17;1.30;;;34.20;87.40;;;;;;5032878;28;20264;-80
2021/08/21 08:41:10;;;;;;;2.97;1.60;;;33.80;86.20;;;;;;5032318;28;20263;-80
2021/08/21 08:43:36;;;;;;;1.80;1.30;;;33.30;85.70;;;;;;5032639;28;20198;-80
2021/08/21 08:46:03;;;;;;;1.47;1.10;;;32.90;85.60;;;;;;5031985;28;20583;-80
2021/08/21 08:48:34;;;;;;;1.60;1.00;;;32.70;86.40;;;;;;5032634;28;20987;-80
2021/08/21 08:51:01;;;;;;;3.83;1.97;;;32.60;85.70;;;;;;5032199;28;20571;-80
2021/08/21 08:53:26;;;;;;;1.90;1.60;;;32.50;86.80;;;;;;5016426;28;20700;-80
2021/08/21 08:55:52;;;;;;;2.23;1.37;;;32.20;85.30;;;;;;5015035;28;20630;-80
2021/08/21 08:58:18;;;;;;;1.63;1.30;;;32.10;87.20;;;;;;5032220;28;20233;-79
2021/08/21 09:00:44;;;;;;;1.87;1.30;;;32.20;87.40;;;;;;5014312;28;20194;-80
2021/08/21 09:03:24;;;;;;;1.70;1.33;;;32.40;89.00;;;;;;5032051;28;20188;-80
2021/08/21 09:05:52;;;;;;;2.10;1.80;;;32.80;89.10;;;;;;5031521;28;20165;-79
2021/08/21 09:08:29;;;;;;;3.72;2.50;;;32.90;85.90;;;;;;5031483;28;20734;-79
2021/08/21 09:11:00;;;;;;;2.70;2.50;;;33.10;84.50;;;;;;5031987;28;20502;-80
2021/08/21 09:13:27;;;;;;;2.23;1.50;;;33.70;83.90;;;;;;5032079;28;20735;-80
2021/08/21 09:15:59;;;;;;;2.03;1.83;;;33.90;83.30;;;;;;5031535;28;20592;-83
2021/08/21 09:18:29;;;;;;;3.67;2.20;;;33.90;77.10;;;;;;5032155;28;20561;-83
2021/08/21 09:21:04;;;;;;;2.10;1.60;;;33.90;80.70;;;;;;5032118;28;20635;-83
2021/08/21 09:23:43;;;;;;;2.50;1.20;;;34.20;80.70;;;;;;5031510;28;20621;-83
2021/08/21 09:26:20;;;;;;;2.43;1.70;;;34.50;81.80;;;;;;5031626;28;20937;-83
2021/08/21 09:28:51;;;;;;;5.00;1.97;;;35.00;79.20;;;;;;5033835;28;20620;-83
2021/08/21 09:31:18;;;;;;;2.10;1.60;;;35.20;76.10;;;;;;5032646;28;20648;-83
2021/08/21 09:34:07;;;;;;;3.13;1.60;;;35.00;73.80;;;;;;5031640;28;20607;-84
2021/08/21 09:36:41;;;;;;;1.73;1.30;;;35.10;71.90;;;;;;5031571;28;20623;-83
2021/08/21 09:39:09;;;;;;;1.67;1.10;;;35.30;73.70;;;;;;5031681;28;20564;-83
2021/08/21 09:41:55;;;;;;;1.93;1.20;;;35.20;73.90;;;;;;5031775;28;21048;-81
2021/08/21 09:44:26;;;;;;;2.20;1.30;;;35.30;73.60;;;;;;5031362;28;20601;-81
2021/08/21 09:47:26;;;;;;;1.50;1.17;;;35.40;70.10;;;;;;5030141;28;20614;-81
2021/08/21 09:49:53;;;;;;;1.20;0.80;;;35.40;71.50;;;;;;5031643;28;20604;-83
2021/08/21 09:52:19;;;;;;;1.47;0.83;;;35.50;70.50;;;;;;5031467;28;20575;-83
2021/08/21 09:55:05;;;;;;;1.80;0.90;;;35.70;69.20;;;;;;5031414;28;20920;-83
2021/08/21 09:57:31;;;;;;;1.60;0.80;;;36.00;71.10;;;;;;5031103;28;20918;-83
2021/08/21 10:00:00;;;;;;;1.40;1.10;;;36.40;69.60;;;;;;5031511;28;20564;-83
2021/08/21 10:02:31;;;;;;;1.50;0.90;;;36.50;66.50;;;;;;5031342;28;20173;-83
2021/08/21 10:04:58;;;;;;;1.87;1.50;;;36.40;63.40;;;;;;4997598;28;20588;-83
2021/08/21 10:07:49;;;;;;;1.63;1.40;;;36.40;64.90;;;;;;5033495;28;20583;-84
2021/08/21 10:10:12;;;;;;;1.50;0.80;;;36.30;63.10;;;;;;5030812;28;20648;-83
2021/08/21 10:12:44;;;;;;;2.47;0.90;;;36.30;63.40;;;;;;5031147;28;20580;-84
2021/08/21 10:15:12;;;;;;;1.30;0.77;;;36.20;62.90;;;;;;5013348;28;20589;-84
2021/08/21 10:17:38;;;;;;;2.10;0.90;;;36.10;63.20;;;;;;5033550;28;20559;-84
2021/08/21 10:20:05;;;;;;;1.30;0.80;;;36.10;60.50;;;;;;5050965;28;20645;-84
2021/08/21 10:22:31;;;;;;;2.40;0.90;;;36.00;60.60;;;;;;5033196;28;20626;-84
2021/08/21 10:25:08;;;;;;;2.13;0.93;;;35.90;59.60;;;;;;5050761;28;21118;-84
2021/08/21 10:27:59;;;;;;;1.90;0.90;;;35.90;60.10;;;;;;5051184;28;20920;-83
2021/08/21 10:30:46;;;;;;;2.67;0.80;;;36.20;63.20;;;;;;5022134;28;20984;-84
2021/08/21 10:33:12;;;;;;;1.83;0.80;;;36.40;60.60;;;;;;5051196;28;20701;-82
2021/08/21 10:35:41;;;;;;;1.67;0.80;;;36.40;59.90;;;;;;5050617;28;20582;-82
2021/08/21 10:38:30;;;;;;;1.60;0.90;;;36.50;58.90;;;;;;5036833;28;20816;-84
2021/08/21 10:41:25;;;;;;;1.47;0.70;;;36.30;58.10;;;;;;5054928;28;20536;-81
2021/08/21 10:43:53;;;;;;;2.03;0.80;;;36.30;59.30;;;;;;5040911;28;20638;-83
2021/08/21 10:46:31;;;;;;;1.63;0.97;;;35.90;57.30;;;;;;5054753;28;20574;-83
2021/08/21 10:49:03;;;;;;;2.00;0.90;;;35.60;57.80;;;;;;5036644;28;21243;-82
2021/08/21 10:51:36;;;;;;;1.60;0.80;;;35.40;59.00;;;;;;5053629;28;20571;-82
2021/08/21 10:54:27;;;;;;;1.83;0.80;;;35.50;57.20;;;;;;5036671;28;20598;-82
2021/08/21 10:56:54;;;;;;;1.30;0.80;;;35.60;59.00;;;;;;5054398;28;20556;-82
2021/08/21 10:59:52;;;;;;;2.37;0.80;;;35.80;60.30;;;;;;5054568;28;21011;-83
2021/08/21 11:02:21;;;;;;;1.20;0.80;;;36.10;59.60;;;;;;4983245;28;20583;-83
2021/08/21 11:04:47;;;;;;;1.50;0.80;;;36.30;58.20;;;;;;5036581;28;20563;-83
2021/08/21 11:07:43;;;;;;;1.30;0.77;;;36.30;59.00;;;;;;5054329;28;20587;-83
2021/08/21 11:10:23;;;;;;;2.90;1.10;;;36.40;58.10;;;;;;5036415;28;20626;-83
2021/08/21 11:12:52;;;;;;;1.40;0.90;;;36.40;57.40;;;;;;5036434;28;20663;-83
2021/08/21 11:15:21;;;;;;;1.50;0.90;;;36.20;56.70;;;;;;5053705;28;20559;-82
2021/08/21 11:17:47;;;;;;;1.30;0.80;;;35.90;56.40;;;;;;5054188;28;20989;-83
2021/08/21 11:20:22;;;;;;;2.10;0.80;;;35.50;56.50;;;;;;5040250;28;20564;-82
2021/08/21 11:23:08;;;;;;;1.70;0.80;;;35.50;57.20;;;;;;5053363;28;20716;-82
2021/08/21 11:25:42;;;;;;;1.80;1.00;;;35.40;56.30;;;;;;5053614;28;20258;-81
2021/08/21 11:28:09;;;;;;;4.03;1.00;;;35.20;56.30;;;;;;5034050;23;20671;-80
2021/08/21 11:30:36;;;;;;;2.20;1.43;;;35.20;57.40;;;;;;5022419;28;20635;-81
2021/08/21 11:33:08;;;;;;;1.37;0.93;;;35.20;56.50;;;;;;5030983;28;20572;-82
2021/08/21 11:35:53;;;;;;;1.47;0.80;;;35.00;56.40;;;;;;5038120;28;20576;-82
2021/08/21 11:38:26;;;;;;;1.33;0.90;;;34.80;56.40;;;;;;5002959;28;20608;-81
2021/08/21 11:40:53;;;;;;;1.70;0.97;;;34.70;56.60;;;;;;4998909;28;20683;-82
2021/08/21 11:43:31;;;;;;;2.20;1.00;;;34.50;56.30;;;;;;5018379;28;20577;-82
2021/08/21 11:45:59;;;;;;;1.37;0.87;;;34.00;55.70;;;;;;5014452;28;20581;-80
2021/08/21 11:48:29;;;;;;;1.60;0.90;;;33.80;56.40;;;;;;4996249;28;20822;-79
2021/08/21 11:50:56;;;;;;;1.30;0.80;;;33.80;57.20;;;;;;5013285;28;20573;-80
2021/08/21 11:53:24;;;;;;;1.40;0.90;;;33.90;57.80;;;;;;5025227;28;20576;-82
2021/08/21 11:55:51;;;;;;;1.53;1.13;;;33.90;57.50;;;;;;5015501;28;20802;-80
2021/08/21 11:58:27;;;;;;;1.80;1.20;;;33.90;57.90;;;;;;5015197;28;20712;-80
2021/08/21 12:00:55;;;;;;;1.87;1.10;;;34.00;57.60;;;;;;5012849;28;20217;-79
2021/08/21 12:03:34;;;;;;;2.63;1.20;;;34.10;57.50;;;;;;5013503;28;20568;-80
2021/08/21 12:06:01;;;;;;;2.93;0.90;;;34.00;57.40;;;;;;4996027;28;20576;-79
2021/08/21 12:08:28;;;;;;;2.33;0.90;;;34.10;58.00;;;;;;5011997;28;20636;-79
2021/08/21 12:11:01;;;;;;;1.50;1.00;;;34.10;57.80;;;;;;5014381;28;20585;-81
2021/08/21 12:13:32;;;;;;;1.60;1.20;;;34.10;57.70;;;;;;5013981;28;21015;-81
2021/08/21 12:16:13;;;;;;;1.40;1.00;;;33.90;56.60;;;;;;5012670;28;20675;-82
2021/08/21 12:18:41;;;;;;;1.67;1.10;;;33.50;56.90;;;;;;5015241;28;20970;-80
2021/08/21 12:21:15;;;;;;;2.73;1.13;;;33.30;56.60;;;;;;4996605;28;20643;-79
2021/08/21 12:23:43;;;;;;;2.20;1.00;;;32.90;57.00;;;;;;5016999;28;20588;-80
2021/08/21 12:26:09;;;;;;;1.97;1.30;;;32.80;57.80;;;;;;5015938;28;20572;-82
2021/08/21 12:28:41;;;;;;;2.13;1.10;;;32.50;57.40;;;;;;5018449;28;20638;-79
2021/08/21 12:31:15;;;;;;;2.10;1.10;;;32.20;57.30;;;;;;5001916;28;20570;-82
2021/08/21 12:33:46;;;;;;;2.10;1.63;;;31.90;57.50;;;;;;5018160;28;20597;-82
2021/08/21 12:36:24;;;;;;;2.43;1.40;;;31.50;58.00;;;;;;5005021;28;20582;-79
2021/08/21 12:39:26;;;;;;;2.07;1.33;;;31.40;58.70;;;;;;5018396;28;20564;-80
2021/08/21 12:42:02;;;;;;;2.37;2.00;;;31.40;59.10;;;;;;4999537;28;20581;-80
2021/08/21 12:44:35;;;;;;;2.60;2.07;;;31.40;59.20;;;;;;5017288;28;20569;-81
2021/08/21 12:47:10;;;;;;;4.50;2.03;;;31.30;58.80;;;;;;5028217;28;20619;-83
2021/08/21 12:49:41;;;;;;;2.45;1.77;;;31.10;59.10;;;;;;5009732;28;20748;-80
2021/08/21 12:52:28;;;;;;;1.87;1.43;;;30.90;59.40;;;;;;5011943;28;20720;-79
2021/08/21 12:55:06;;;;;;;2.77;2.33;;;30.70;59.40;;;;;;4995929;28;20578;-80
2021/08/21 12:57:36;;;;;;;2.13;1.10;;;30.50;59.90;;;;;;5032170;28;20594;-81
2021/08/21 13:00:08;;;;;;;1.73;1.40;;;30.50;60.10;;;;;;5030624;28;20579;-81